createdAt,value
2022-12-18T00:01:22.983Z,-5.03
2022-12-18T00:03:50.265Z,-5.07
2022-12-18T00:06:19.692Z,-5.14
2022-12-18T00:08:47.088Z,-5.19
2022-12-18T00:11:16.684Z,-5.25
2022-12-18T00:13:44.032Z,-5.28
2022-12-18T00:16:14.201Z,-5.33
2022-12-18T00:18:41.510Z,-5.41
2022-12-18T00:21:10.911Z,-5.46
2022-12-18T00:23:38.994Z,-5.50
2022-12-18T00:26:27.477Z,-5.53
2022-12-18T00:28:55.028Z,-5.57
2022-12-18T00:31:24.878Z,-5.58
2022-12-18T00:33:55.188Z,-5.59
2022-12-18T00:36:30.417Z,-5.63
2022-12-18T00:39:00.429Z,-5.66
2022-12-18T00:41:27.990Z,-5.64
2022-12-18T00:43:54.391Z,-5.64
2022-12-18T00:46:20.889Z,-5.63
2022-12-18T00:48:47.405Z,-5.62
2022-12-18T00:51:13.816Z,-5.57
2022-12-18T00:53:40.726Z,-5.53
2022-12-18T00:56:07.618Z,-5.47
2022-12-18T00:58:37.077Z,-5.46
2022-12-18T01:01:05.941Z,-5.44
2022-12-18T01:03:32.598Z,-5.42
2022-12-18T01:05:59.233Z,-5.39
2022-12-18T01:08:25.842Z,-5.36
2022-12-18T01:10:52.410Z,-5.34
2022-12-18T01:13:18.830Z,-5.32
2022-12-18T01:15:50.533Z,-5.28
2022-12-18T01:18:17.435Z,-5.26
2022-12-18T01:20:44.027Z,-5.23
2022-12-18T01:23:10.651Z,-5.19
2022-12-18T01:25:37.596Z,-5.17
2022-12-18T01:28:04.342Z,-5.14
2022-12-18T01:30:30.808Z,-5.11
2022-12-18T01:32:57.218Z,-5.10
2022-12-18T01:35:23.751Z,-5.08
2022-12-18T01:37:50.293Z,-5.05
2022-12-18T01:40:16.941Z,-5.02
2022-12-18T01:42:43.474Z,-4.99
2022-12-18T01:45:12.604Z,-4.97
2022-12-18T01:47:40.622Z,-4.96
2022-12-18T01:50:24.769Z,-4.96
2022-12-18T01:52:54.871Z,-4.97
2022-12-18T01:55:25.827Z,-4.98
2022-12-18T01:57:58.639Z,-4.98
2022-12-18T02:00:26.691Z,-4.97
2022-12-18T02:02:54.640Z,-4.96
2022-12-18T02:05:38.053Z,-4.95
2022-12-18T02:08:11.737Z,-4.94
2022-12-18T02:11:03.175Z,-4.94
2022-12-18T02:13:33.677Z,-4.94
2022-12-18T02:16:18.450Z,-4.95
2022-12-18T02:18:51.351Z,-4.94
2022-12-18T02:21:45.968Z,-4.96
2022-12-18T02:24:36.234Z,-4.98
2022-12-18T02:27:06.918Z,-4.98
2022-12-18T02:29:57.931Z,-4.99
2022-12-18T02:32:31.341Z,-5.02
2022-12-18T02:34:59.386Z,-5.02
2022-12-18T02:37:28.982Z,-5.03
2022-12-18T02:39:58.052Z,-5.06
2022-12-18T02:42:25.273Z,-5.10
2022-12-18T02:44:52.833Z,-5.10
2022-12-18T02:47:23.471Z,-5.12
2022-12-18T02:50:06.396Z,-5.11
2022-12-18T02:53:05.654Z,-5.12
2022-12-18T02:55:55.602Z,-5.17
2022-12-18T02:58:34.015Z,-5.21
2022-12-18T03:01:11.137Z,-5.24
2022-12-18T03:04:04.576Z,-5.28
2022-12-18T03:06:36.851Z,-5.30
2022-12-18T03:09:09.960Z,-5.31
2022-12-18T03:11:42.191Z,-5.33
2022-12-18T03:14:09.915Z,-5.36
2022-12-18T03:16:37.161Z,-5.40
2022-12-18T03:19:09.630Z,-5.46
2022-12-18T03:21:46.787Z,-5.53
2022-12-18T03:24:13.433Z,-5.61
2022-12-18T03:26:45.921Z,-5.68
2022-12-18T03:29:57.173Z,-5.74
2022-12-18T03:32:39.768Z,-5.79
2022-12-18T03:35:08.183Z,-5.79
2022-12-18T03:37:36.029Z,-5.77
2022-12-18T03:40:03.660Z,-5.75
2022-12-18T03:42:38.935Z,-5.70
2022-12-18T03:45:14.656Z,-5.69
2022-12-18T03:47:54.829Z,-5.68
2022-12-18T03:50:44.484Z,-5.67
2022-12-18T03:53:43.641Z,-5.67
2022-12-18T03:56:12.413Z,-5.72
2022-12-18T03:58:42.854Z,-5.74
2022-12-18T04:01:12.902Z,-5.78
2022-12-18T04:03:42.480Z,-5.82
2022-12-18T04:06:11.048Z,-5.85
2022-12-18T04:08:37.950Z,-5.91
2022-12-18T04:11:04.557Z,-5.96
2022-12-18T04:13:39.795Z,-5.98
2022-12-18T04:16:07.215Z,-6.00
2022-12-18T04:18:33.782Z,-6.00
2022-12-18T04:21:00.422Z,-5.99
2022-12-18T04:23:27.003Z,-6.03
2022-12-18T04:25:53.479Z,-6.03
2022-12-18T04:28:19.995Z,-6.05
2022-12-18T04:30:49.834Z,-6.08
2022-12-18T04:33:19.624Z,-6.10
2022-12-18T04:35:46.119Z,-6.12
2022-12-18T04:38:12.649Z,-6.11
2022-12-18T04:40:39.786Z,-6.10
2022-12-18T04:43:08.318Z,-6.11
2022-12-18T04:45:35.136Z,-6.11
2022-12-18T04:48:03.394Z,-6.10
2022-12-18T04:50:30.883Z,-6.10
2022-12-18T04:52:57.913Z,-6.09
2022-12-18T04:55:28.360Z,-6.12
2022-12-18T04:57:54.905Z,-6.11
2022-12-18T05:00:21.928Z,-6.10
2022-12-18T05:02:48.765Z,-6.07
2022-12-18T05:05:15.535Z,-6.04
2022-12-18T05:07:42.076Z,-6.01
2022-12-18T05:10:09.421Z,-5.96
2022-12-18T05:12:36.999Z,-5.92
2022-12-18T05:15:07.233Z,-5.88
2022-12-18T05:17:33.650Z,-5.84
2022-12-18T05:20:00.199Z,-5.81
2022-12-18T05:22:26.748Z,-5.78
2022-12-18T05:24:53.279Z,-5.75
2022-12-18T05:27:19.814Z,-5.71
2022-12-18T05:29:46.403Z,-5.69
2022-12-18T05:32:12.907Z,-5.67
2022-12-18T05:34:39.442Z,-5.66
2022-12-18T05:37:06.290Z,-5.64
2022-12-18T05:39:36.252Z,-5.63
2022-12-18T05:42:02.799Z,-5.63
2022-12-18T05:44:29.297Z,-5.64
2022-12-18T05:46:55.989Z,-5.66
2022-12-18T05:49:22.590Z,-5.66
2022-12-18T05:51:49.008Z,-5.65
2022-12-18T05:54:15.462Z,-5.63
2022-12-18T05:56:47.019Z,-5.63
2022-12-18T05:59:14.973Z,-5.62
2022-12-18T06:01:41.765Z,-5.62
2022-12-18T06:04:08.723Z,-5.61
2022-12-18T06:06:35.437Z,-5.59
2022-12-18T06:09:02.242Z,-5.58
2022-12-18T06:11:28.880Z,-5.56
2022-12-18T06:13:59.156Z,-5.54
2022-12-18T06:16:26.970Z,-5.52
2022-12-18T06:18:53.674Z,-5.50
2022-12-18T06:21:20.207Z,-5.50
2022-12-18T06:23:46.633Z,-5.50
2022-12-18T06:26:14.131Z,-5.49
2022-12-18T06:28:41.253Z,-5.51
2022-12-18T06:31:09.585Z,-5.59
2022-12-18T06:33:37.480Z,-5.75
2022-12-18T06:36:10.413Z,-5.89
2022-12-18T06:38:39.183Z,-5.99
2022-12-18T06:41:13.986Z,-6.08
2022-12-18T06:43:40.931Z,-6.12
2022-12-18T06:46:08.333Z,-6.14
2022-12-18T06:48:35.507Z,-6.14
2022-12-18T06:51:02.745Z,-6.10
2022-12-18T06:53:29.931Z,-6.08
2022-12-18T06:56:10.226Z,-6.06
2022-12-18T06:58:37.516Z,-6.02
2022-12-18T07:01:06.010Z,-5.97
2022-12-18T07:03:33.269Z,-5.90
2022-12-18T07:05:59.664Z,-5.88
2022-12-18T07:08:26.592Z,-5.91
2022-12-18T07:10:56.276Z,-5.89
2022-12-18T07:13:23.599Z,-5.92
2022-12-18T07:15:50.372Z,-5.87
2022-12-18T07:18:16.911Z,-5.84
2022-12-18T07:20:43.456Z,-5.81
2022-12-18T07:23:09.888Z,-5.81
2022-12-18T07:25:37.762Z,-5.75
2022-12-18T07:28:04.887Z,-5.68
2022-12-18T07:30:31.565Z,-5.64
2022-12-18T07:32:58.095Z,-5.58
2022-12-18T07:35:25.353Z,-5.53
2022-12-18T07:37:52.308Z,-5.51
2022-12-18T07:40:18.847Z,-5.44
2022-12-18T07:42:45.270Z,-5.40
2022-12-18T07:45:11.760Z,-5.43
2022-12-18T07:47:38.296Z,-5.46
2022-12-18T07:50:06.328Z,-5.49
2022-12-18T07:52:32.782Z,-5.49
2022-12-18T07:54:59.938Z,-5.46
2022-12-18T07:57:49.534Z,-5.41
2022-12-18T08:00:13.753Z,-5.36
2022-12-18T08:02:40.308Z,-5.34
2022-12-18T08:05:09.234Z,-5.33
2022-12-18T08:07:35.687Z,-5.34
2022-12-18T08:10:02.114Z,-5.35
2022-12-18T08:12:28.547Z,-5.35
2022-12-18T08:14:54.994Z,-5.32
2022-12-18T08:17:21.405Z,-5.25
2022-12-18T08:19:47.963Z,-5.23
2022-12-18T08:22:14.436Z,-5.22
2022-12-18T08:24:41.043Z,-5.16
2022-12-18T08:27:28.405Z,-5.05
2022-12-18T08:29:54.093Z,-4.87
2022-12-18T08:32:20.632Z,-4.84
2022-12-18T08:34:47.031Z,-4.84
2022-12-18T08:37:13.467Z,-4.81
2022-12-18T08:39:39.947Z,-4.69
2022-12-18T08:42:10.009Z,-4.55
2022-12-18T08:44:37.119Z,-4.40
2022-12-18T08:47:03.865Z,-4.28
2022-12-18T08:49:30.375Z,-4.13
2022-12-18T08:51:57.654Z,-4.13
2022-12-18T08:54:25.375Z,-4.08
2022-12-18T08:56:52.056Z,-4.04
2022-12-18T08:59:20.018Z,-3.89
2022-12-18T09:01:47.957Z,-3.77
2022-12-18T09:04:14.727Z,-3.68
2022-12-18T09:06:41.469Z,-3.54
2022-12-18T09:09:08.036Z,-3.34
2022-12-18T09:11:34.693Z,-3.28
2022-12-18T09:14:02.654Z,-3.34
2022-12-18T09:16:32.260Z,-3.29
2022-12-18T09:19:00.319Z,-3.05
2022-12-18T09:21:29.677Z,-2.95
2022-12-18T09:23:56.987Z,-2.93
2022-12-18T09:26:24.955Z,-2.99
2022-12-18T09:28:51.644Z,-3.00
2022-12-18T09:31:20.946Z,-3.05
2022-12-18T09:33:48.180Z,-3.14
2022-12-18T09:36:17.996Z,-3.17
2022-12-18T09:38:44.889Z,-3.12
2022-12-18T09:41:40.773Z,-3.10
2022-12-18T09:44:10.320Z,-3.10
2022-12-18T09:46:43.897Z,-3.07
2022-12-18T09:49:18.718Z,-2.96
2022-12-18T09:51:57.139Z,-2.80
2022-12-18T09:54:56.033Z,-2.69
2022-12-18T09:57:25.229Z,-2.63
2022-12-18T10:00:00.064Z,-2.57
2022-12-18T10:02:31.106Z,-2.53
2022-12-18T10:05:15.087Z,-2.58
2022-12-18T10:07:53.884Z,-2.62
2022-12-18T10:10:32.399Z,-2.55
2022-12-18T10:13:16.772Z,-2.47
2022-12-18T10:15:55.871Z,-2.47
2022-12-18T10:18:29.757Z,-2.37
2022-12-18T10:21:04.860Z,-2.22
2022-12-18T10:24:00.889Z,-2.13
2022-12-18T10:26:27.434Z,-2.12
2022-12-18T10:28:55.432Z,-2.00
2022-12-18T10:31:24.713Z,-1.88
2022-12-18T10:33:52.462Z,-1.82
2022-12-18T10:36:19.163Z,-1.87
2022-12-18T10:38:45.769Z,-1.98
2022-12-18T10:41:26.895Z,-2.02
2022-12-18T10:44:23.521Z,-2.02
2022-12-18T10:47:10.136Z,-2.00
2022-12-18T10:49:49.045Z,-1.93
2022-12-18T10:52:19.758Z,-1.84
2022-12-18T10:54:55.937Z,-1.84
2022-12-18T10:57:36.406Z,-1.74
2022-12-18T11:00:28.734Z,-1.66
2022-12-18T11:02:56.448Z,-1.66
2022-12-18T11:05:26.994Z,-1.63
2022-12-18T11:07:56.543Z,-1.65
2022-12-18T11:10:29.242Z,-1.66
2022-12-18T11:12:56.512Z,-1.59
2022-12-18T11:15:28.811Z,-1.47
2022-12-18T11:17:55.332Z,-1.38
2022-12-18T11:20:28.961Z,-1.41
2022-12-18T11:22:58.424Z,-1.36
2022-12-18T11:25:35.027Z,-1.16
2022-12-18T11:28:04.979Z,-1.05
2022-12-18T11:30:37.401Z,-1.03
2022-12-18T11:33:11.438Z,-1.17
2022-12-18T11:35:52.606Z,-1.19
2022-12-18T11:38:25.747Z,-1.19
2022-12-18T11:41:01.492Z,-1.24
2022-12-18T11:43:39.301Z,-1.28
2022-12-18T11:46:19.409Z,-1.29
2022-12-18T11:48:58.899Z,-1.27
2022-12-18T11:51:35.960Z,-1.30
2022-12-18T11:54:09.406Z,-1.28
2022-12-18T11:57:03.031Z,-1.25
2022-12-18T12:00:12.213Z,-1.22
2022-12-18T12:02:49.300Z,-1.38
2022-12-18T12:05:34.496Z,-1.49
2022-12-18T12:08:21.193Z,-1.38
2022-12-18T12:10:56.705Z,-1.31
2022-12-18T12:13:49.969Z,-1.29
2022-12-18T12:16:47.771Z,-1.36
2022-12-18T12:19:37.474Z,-1.46
2022-12-18T12:22:22.521Z,-1.85
2022-12-18T12:25:30.104Z,-2.20
2022-12-18T12:28:14.872Z,-2.39
2022-12-18T12:31:02.703Z,-2.33
2022-12-18T12:33:38.312Z,-2.19
2022-12-18T12:36:21.179Z,-2.27
2022-12-18T12:38:53.050Z,-2.31
2022-12-18T12:41:25.019Z,-2.22
2022-12-18T12:43:51.883Z,-2.07
2022-12-18T12:46:22.850Z,-2.00
2022-12-18T12:48:53.015Z,-2.01
2022-12-18T12:51:30.028Z,-1.85
2022-12-18T12:53:59.020Z,-1.64
2022-12-18T12:56:39.189Z,-1.54
2022-12-18T12:59:26.466Z,-1.48
2022-12-18T13:02:24.020Z,-1.56
2022-12-18T13:05:15.792Z,-1.78
2022-12-18T13:07:51.149Z,-1.78
2022-12-18T13:10:19.185Z,-1.78
2022-12-18T13:13:16.473Z,-1.96
2022-12-18T13:15:48.234Z,-2.19
2022-12-18T13:18:18.617Z,-2.29
2022-12-18T13:20:55.172Z,-2.43
2022-12-18T13:23:25.055Z,-2.54
2022-12-18T13:25:53.621Z,-2.64
2022-12-18T13:28:48.310Z,-2.70
2022-12-18T13:31:50.076Z,-2.79
2022-12-18T13:34:29.331Z,-2.90
2022-12-18T13:37:17.701Z,-3.00
2022-12-18T13:39:44.540Z,-3.04
2022-12-18T13:42:11.290Z,-3.05
2022-12-18T13:44:42.228Z,-3.06
2022-12-18T13:47:28.751Z,-3.03
2022-12-18T13:49:56.021Z,-3.05
2022-12-18T13:52:26.607Z,-3.11
2022-12-18T13:54:59.477Z,-3.16
2022-12-18T13:57:25.865Z,-3.25
2022-12-18T13:59:52.381Z,-3.32
2022-12-18T14:02:24.238Z,-3.40
2022-12-18T14:04:52.253Z,-3.50
2022-12-18T14:07:23.695Z,-3.58
2022-12-18T14:10:06.486Z,-3.67
2022-12-18T14:12:49.545Z,-3.79
2022-12-18T14:15:26.297Z,-3.88
2022-12-18T14:17:56.064Z,-3.96
2022-12-18T14:20:23.723Z,-4.03
2022-12-18T14:22:50.451Z,-4.11
2022-12-18T14:25:20.850Z,-4.17
2022-12-18T14:27:52.162Z,-4.24
2022-12-18T14:30:25.069Z,-4.32
2022-12-18T14:33:11.843Z,-4.39
2022-12-18T14:36:00.195Z,-4.43
2022-12-18T14:38:29.687Z,-4.49
2022-12-18T14:41:07.307Z,-4.55
2022-12-18T14:43:39.769Z,-4.58
2022-12-18T14:46:27.483Z,-4.61
2022-12-18T14:48:54.895Z,-4.64
2022-12-18T14:51:32.920Z,-4.68
2022-12-18T14:54:02.030Z,-4.73
2022-12-18T14:56:36.614Z,-4.77
2022-12-18T14:59:04.690Z,-4.83
2022-12-18T15:01:40.451Z,-4.90
2022-12-18T15:04:26.408Z,-4.98
2022-12-18T15:07:09.884Z,-5.09
2022-12-18T15:09:36.933Z,-5.17
2022-12-18T15:12:04.164Z,-5.24
2022-12-18T15:14:41.689Z,-5.33
2022-12-18T15:17:24.129Z,-5.42
2022-12-18T15:19:59.651Z,-5.51
2022-12-18T15:22:29.491Z,-5.62
2022-12-18T15:24:58.161Z,-5.72
2022-12-18T15:27:47.990Z,-5.79
2022-12-18T15:30:20.715Z,-5.85
2022-12-18T15:32:48.524Z,-5.94
2022-12-18T15:35:19.137Z,-6.09
2022-12-18T15:37:46.178Z,-6.22
2022-12-18T15:40:15.542Z,-6.33
2022-12-18T15:42:44.784Z,-6.45
2022-12-18T15:45:14.085Z,-6.60
2022-12-18T15:47:41.450Z,-6.71
2022-12-18T15:50:08.931Z,-6.81
2022-12-18T15:52:47.408Z,-6.92
2022-12-18T15:55:18.352Z,-7.05
2022-12-18T15:57:44.913Z,-7.18
2022-12-18T16:00:13.448Z,-7.28
2022-12-18T16:02:40.099Z,-7.35
2022-12-18T16:05:16.094Z,-7.39
2022-12-18T16:07:42.532Z,-7.44
2022-12-18T16:10:09.660Z,-7.52
2022-12-18T16:12:36.890Z,-7.58
2022-12-18T16:15:05.088Z,-7.63
2022-12-18T16:17:32.788Z,-7.70
2022-12-18T16:20:06.132Z,-7.76
2022-12-18T16:22:32.557Z,-7.82
2022-12-18T16:24:59.075Z,-7.88
2022-12-18T16:27:26.231Z,-7.95
2022-12-18T16:29:53.068Z,-8.04
2022-12-18T16:32:21.856Z,-8.11
2022-12-18T16:34:49.011Z,-8.18
2022-12-18T16:37:16.774Z,-8.27
2022-12-18T16:39:44.347Z,-8.35
2022-12-18T16:42:14.513Z,-8.42
2022-12-18T16:44:41.921Z,-8.49
2022-12-18T16:47:09.227Z,-8.55
2022-12-18T16:49:38.175Z,-8.58
2022-12-18T16:52:07.910Z,-8.63
2022-12-18T16:54:34.535Z,-8.67
2022-12-18T16:57:01.068Z,-8.73
2022-12-18T16:59:27.502Z,-8.82
2022-12-18T17:01:55.195Z,-8.90
2022-12-18T17:04:21.811Z,-8.99
2022-12-18T17:06:48.222Z,-9.13
2022-12-18T17:09:15.839Z,-9.30
2022-12-18T17:11:43.535Z,-9.44
2022-12-18T17:14:14.530Z,-9.56
2022-12-18T17:16:41.054Z,-9.70
2022-12-18T17:19:10.981Z,-9.82
2022-12-18T17:21:42.014Z,-9.93
2022-12-18T17:24:09.067Z,-10.03
2022-12-18T17:26:35.578Z,-10.14
2022-12-18T17:29:02.085Z,-10.23
2022-12-18T17:31:30.154Z,-10.28
2022-12-18T17:33:57.471Z,-10.36
2022-12-18T17:36:24.526Z,-10.42
2022-12-18T17:38:56.085Z,-10.44
2022-12-18T17:41:23.032Z,-10.48
2022-12-18T17:43:57.761Z,-10.58
2022-12-18T17:46:25.695Z,-10.64
2022-12-18T17:48:55.020Z,-10.68
2022-12-18T17:51:21.579Z,-10.70
2022-12-18T17:53:48.401Z,-10.76
2022-12-18T17:56:17.122Z,-10.84
2022-12-18T17:58:43.967Z,-10.91
2022-12-18T18:01:14.011Z,-10.97
2022-12-18T18:03:44.025Z,-11.01
2022-12-18T18:06:11.277Z,-11.07
2022-12-18T18:08:37.804Z,-11.09
2022-12-18T18:11:06.698Z,-11.10
2022-12-18T18:13:37.847Z,-11.07
2022-12-18T18:16:07.397Z,-11.06
2022-12-18T18:18:34.098Z,-11.09
2022-12-18T18:21:05.548Z,-11.14
2022-12-18T18:23:33.672Z,-11.19
2022-12-18T18:26:08.046Z,-11.24
2022-12-18T18:28:36.220Z,-11.27
2022-12-18T18:31:07.572Z,-11.28
2022-12-18T18:33:34.314Z,-11.32
2022-12-18T18:36:01.088Z,-11.35
2022-12-18T18:38:28.077Z,-11.39
2022-12-18T18:40:59.363Z,-11.42
2022-12-18T18:43:25.833Z,-11.48
2022-12-18T18:46:00.150Z,-11.50
2022-12-18T18:48:27.572Z,-11.57
2022-12-18T18:50:57.719Z,-11.64
2022-12-18T18:53:24.492Z,-11.69
2022-12-18T18:56:10.239Z,-11.71
2022-12-18T18:58:40.433Z,-11.72
2022-12-18T19:01:11.300Z,-11.78
2022-12-18T19:03:38.686Z,-11.80
2022-12-18T19:06:07.557Z,-11.82
2022-12-18T19:08:37.217Z,-11.86
2022-12-18T19:11:06.087Z,-11.93
2022-12-18T19:13:33.908Z,-12.05
2022-12-18T19:16:08.984Z,-12.19
2022-12-18T19:18:35.871Z,-12.27
2022-12-18T19:21:05.068Z,-12.32
2022-12-18T19:23:33.158Z,-12.34
2022-12-18T19:26:17.062Z,-12.37
2022-12-18T19:28:48.093Z,-12.43
2022-12-18T19:31:20.056Z,-12.49
2022-12-18T19:33:51.207Z,-12.49
2022-12-18T19:36:32.314Z,-12.45
2022-12-18T19:39:01.693Z,-12.38
2022-12-18T19:41:32.859Z,-12.39
2022-12-18T19:44:02.245Z,-12.43
2022-12-18T19:46:36.038Z,-12.49
2022-12-18T19:49:04.845Z,-12.58
2022-12-18T19:51:32.615Z,-12.63
2022-12-18T19:54:01.892Z,-12.68
2022-12-18T19:56:32.222Z,-12.72
2022-12-18T19:58:58.879Z,-12.79
2022-12-18T20:01:27.346Z,-12.88
2022-12-18T20:03:55.296Z,-12.92
2022-12-18T20:06:35.092Z,-13.01
2022-12-18T20:09:04.803Z,-13.09
2022-12-18T20:11:33.084Z,-13.18
2022-12-18T20:13:59.624Z,-13.21
2022-12-18T20:16:26.526Z,-13.21
2022-12-18T20:18:53.374Z,-13.23
2022-12-18T20:21:20.418Z,-13.26
2022-12-18T20:23:47.070Z,-13.29
2022-12-18T20:26:15.602Z,-13.31
2022-12-18T20:28:42.312Z,-13.36
2022-12-18T20:31:10.391Z,-13.39
2022-12-18T20:33:37.428Z,-13.43
2022-12-18T20:36:10.430Z,-13.44
2022-12-18T20:38:37.207Z,-13.52
2022-12-18T20:41:07.519Z,-13.60
2022-12-18T20:43:34.027Z,-13.67
2022-12-18T20:46:06.072Z,-13.76
2022-12-18T20:48:33.178Z,-13.81
2022-12-18T20:51:02.130Z,-13.80
2022-12-18T20:53:30.979Z,-13.79
2022-12-18T20:55:57.440Z,-13.78
2022-12-18T20:58:24.886Z,-13.79
2022-12-18T21:01:03.780Z,-13.81
2022-12-18T21:03:30.376Z,-13.87
2022-12-18T21:05:56.893Z,-13.85
2022-12-18T21:08:23.435Z,-13.87
2022-12-18T21:10:49.966Z,-13.89
2022-12-18T21:13:16.539Z,-13.91
2022-12-18T21:15:44.313Z,-13.94
2022-12-18T21:18:10.954Z,-13.99
2022-12-18T21:20:37.438Z,-14.03
2022-12-18T21:23:15.640Z,-14.07
2022-12-18T21:25:44.368Z,-14.08
2022-12-18T21:28:12.132Z,-14.12
2022-12-18T21:30:38.819Z,-14.17
2022-12-18T21:33:05.354Z,-14.21
2022-12-18T21:35:32.118Z,-14.24
2022-12-18T21:37:58.815Z,-14.28
2022-12-18T21:40:25.315Z,-14.29
2022-12-18T21:42:51.882Z,-14.30
2022-12-18T21:45:18.434Z,-14.30
2022-12-18T21:47:44.956Z,-14.34
2022-12-18T21:50:11.396Z,-14.38
2022-12-18T21:52:37.933Z,-14.40
2022-12-18T21:55:09.412Z,-14.42
2022-12-18T21:57:38.405Z,-14.43
2022-12-18T22:00:06.300Z,-14.44
2022-12-18T22:02:32.877Z,-14.46
2022-12-18T22:04:59.439Z,-14.53
2022-12-18T22:07:25.917Z,-14.60
2022-12-18T22:09:52.406Z,-14.67
2022-12-18T22:12:18.947Z,-14.65
2022-12-18T22:14:45.369Z,-14.70
2022-12-18T22:17:11.825Z,-14.72
2022-12-18T22:19:43.118Z,-14.72
2022-12-18T22:22:10.130Z,-14.74
2022-12-18T22:24:36.575Z,-14.74
2022-12-18T22:27:03.161Z,-14.77
2022-12-18T22:29:29.962Z,-14.82
2022-12-18T22:31:58.091Z,-14.86
2022-12-18T22:34:24.576Z,-14.88
2022-12-18T22:36:51.214Z,-14.92
2022-12-18T22:39:26.637Z,-14.95
2022-12-18T22:41:55.557Z,-14.99
2022-12-18T22:44:22.025Z,-15.06
2022-12-18T22:46:56.234Z,-15.11
2022-12-18T22:49:32.336Z,-15.15
2022-12-18T22:52:00.470Z,-15.20
2022-12-18T22:54:27.000Z,-15.24
2022-12-18T22:56:53.544Z,-15.24
2022-12-18T22:59:23.535Z,-15.27
2022-12-18T23:01:51.423Z,-15.30
2022-12-18T23:04:26.782Z,-15.34
2022-12-18T23:06:54.855Z,-15.37
2022-12-18T23:09:21.496Z,-15.38
2022-12-18T23:11:48.034Z,-15.39
2022-12-18T23:14:14.518Z,-15.39
2022-12-18T23:16:42.007Z,-15.39
2022-12-18T23:19:10.369Z,-15.42
2022-12-18T23:21:37.427Z,-15.43
2022-12-18T23:24:04.626Z,-15.48
2022-12-18T23:26:31.377Z,-15.51
2022-12-18T23:28:57.864Z,-15.56
2022-12-18T23:31:27.428Z,-15.60
2022-12-18T23:33:57.066Z,-15.64
2022-12-18T23:36:24.801Z,-15.69
2022-12-18T23:38:53.899Z,-15.72
2022-12-18T23:41:22.825Z,-15.72
2022-12-18T23:43:49.511Z,-15.73
2022-12-18T23:46:21.764Z,-15.75
2022-12-18T23:48:49.295Z,-15.73
2022-12-18T23:51:18.122Z,-15.74
2022-12-18T23:53:44.987Z,-15.75
2022-12-18T23:56:13.010Z,-15.77
2022-12-18T23:58:39.803Z,-15.82
